CheckWX is a tool to help pilots better visualize weather data.  It is not intended as a substitute for an official pre-flight weather briefing.

19:16:50 UTC

KMTJ TAF
Montrose Regional Airport
Montrose, Colorado, USA
KMTJ 271815Z 2718/2818 30007KT 3/4SM -SN BR SCT004 BKN010 OVC015 TEMPO 2718/2721 3SM -SN BR OVC020 FM272100 27005KT P6SM VCSH BKN030 FM280000 29007KT P6SM SCT030

Jan-27@
18:00 UTC

Jan-27 @ 18:00 UTC

Jan-27@
21:00 UTC

Jan-27 @ 21:00 UTC

KMTJ 271815Z 2718/2818 30007KT 3/4SM -SN BR SCT004 BKN010 OVC015
Wind
  • 300° at 7 KTS
Conditions
Light Snow, Mist
Cloud Levels
  • Scattered at 400' AGL
  • Broken at 1,000' AGL
  • Overcast at 1,500' AGL

Jan-27@
18:00 UTC

Jan-27 @ 18:00 UTC

Jan-27@
21:00 UTC

Jan-27 @ 21:00 UTC

TEMPO 2718/2721 3SM -SN BR OVC020

Temporary

Temporary Changes expected for less than half the time period

Conditions
Light Snow, Mist
Cloud Levels
  • Overcast at 2,000' AGL

Jan-27@
21:00 UTC

Jan-27 @ 21:00 UTC

Jan-28@
00:00 UTC

Jan-28 @ 00:00 UTC

FM272100 27005KT P6SM VCSH BKN030

From

From Standard forecast or significant change

Wind
  • 270° at 5 KTS
Cloud Levels
  • Broken at 3,000' AGL

Jan-28@
00:00 UTC

Jan-28 @ 00:00 UTC

Jan-28@
18:00 UTC

Jan-28 @ 18:00 UTC

FM280000 29007KT P6SM SCT030

From

From Standard forecast or significant change

Wind
  • 290° at 7 KTS
Cloud Levels
  • Scattered at 3,000' AGL